sensor_id;sensor_type;location;lat;lon;timestamp;P1;durP1;ratioP1;P2;durP2;ratioP2
21979;SDS011;11154;48.558;9.234;2023-05-14T00:01:19;5.80;;;4.18;;
21979;SDS011;11154;48.558;9.234;2023-05-14T00:03:22;5.53;;;4.50;;
21979;SDS011;11154;48.558;9.234;2023-05-14T00:05:23;6.57;;;4.53;;
21979;SDS011;11154;48.558;9.234;2023-05-14T00:07:25;7.18;;;4.43;;
21979;SDS011;11154;48.558;9.234;2023-05-14T00:09:29;7.68;;;4.43;;
21979;SDS011;11154;48.558;9.234;2023-05-14T00:11:32;6.05;;;4.78;;
21979;SDS011;11154;48.558;9.234;2023-05-14T00:13:33;5.53;;;4.70;;
21979;SDS011;11154;48.558;9.234;2023-05-14T00:15:35;7.18;;;4.90;;
21979;SDS011;11154;48.558;9.234;2023-05-14T00:17:37;5.13;;;4.63;;
21979;SDS011;11154;48.558;9.234;2023-05-14T00:19:40;4.68;;;4.20;;
21979;SDS011;11154;48.558;9.234;2023-05-14T00:21:42;4.80;;;4.30;;
21979;SDS011;11154;48.558;9.234;2023-05-14T00:23:43;6.60;;;4.82;;
21979;SDS011;11154;48.558;9.234;2023-05-14T00:25:45;4.90;;;4.07;;
21979;SDS011;11154;48.558;9.234;2023-05-14T00:27:47;6.18;;;4.10;;
21979;SDS011;11154;48.558;9.234;2023-05-14T00:29:48;4.57;;;4.18;;
21979;SDS011;11154;48.558;9.234;2023-05-14T00:31:50;5.18;;;4.07;;
21979;SDS011;11154;48.558;9.234;2023-05-14T00:33:52;6.43;;;4.50;;
21979;SDS011;11154;48.558;9.234;2023-05-14T00:35:57;6.85;;;4.35;;
21979;SDS011;11154;48.558;9.234;2023-05-14T00:37:59;4.30;;;3.90;;
21979;SDS011;11154;48.558;9.234;2023-05-14T00:40:01;4.38;;;3.95;;
21979;SDS011;11154;48.558;9.234;2023-05-14T00:42:05;4.80;;;3.92;;
21979;SDS011;11154;48.558;9.234;2023-05-14T00:44:07;6.38;;;3.67;;
21979;SDS011;11154;48.558;9.234;2023-05-14T00:46:09;4.93;;;4.05;;
21979;SDS011;11154;48.558;9.234;2023-05-14T00:48:12;6.22;;;3.97;;
21979;SDS011;11154;48.558;9.234;2023-05-14T00:50:14;4.47;;;4.07;;
21979;SDS011;11154;48.558;9.234;2023-05-14T00:52:18;4.53;;;4.13;;
21979;SDS011;11154;48.558;9.234;2023-05-14T00:54:21;4.00;;;3.55;;
21979;SDS011;11154;48.558;9.234;2023-05-14T00:56:23;10.02;;;3.67;;
21979;SDS011;11154;48.558;9.234;2023-05-14T00:58:25;6.70;;;4.30;;
21979;SDS011;11154;48.558;9.234;2023-05-14T01:00:27;5.07;;;4.32;;
21979;SDS011;11154;48.558;9.234;2023-05-14T01:02:29;4.55;;;4.10;;
21979;SDS011;11154;48.558;9.234;2023-05-14T01:04:30;4.63;;;4.10;;
21979;SDS011;11154;48.558;9.234;2023-05-14T01:06:35;5.55;;;3.88;;
21979;SDS011;11154;48.558;9.234;2023-05-14T01:08:48;10.63;;;7.80;;
21979;SDS011;11154;48.558;9.234;2023-05-14T01:10:59;11.25;;;8.70;;
21979;SDS011;11154;48.558;9.234;2023-05-14T01:13:07;16.17;;;12.18;;
21979;SDS011;11154;48.558;9.234;2023-05-14T01:15:14;9.57;;;7.03;;
21979;SDS011;11154;48.558;9.234;2023-05-14T01:17:20;7.03;;;6.10;;
21979;SDS011;11154;48.558;9.234;2023-05-14T01:19:26;5.00;;;4.13;;
21979;SDS011;11154;48.558;9.234;2023-05-14T01:21:39;4.50;;;3.83;;
21979;SDS011;11154;48.558;9.234;2023-05-14T01:23:43;4.90;;;4.40;;
21979;SDS011;11154;48.558;9.234;2023-05-14T01:25:45;8.30;;;4.22;;
21979;SDS011;11154;48.558;9.234;2023-05-14T01:27:48;5.28;;;3.97;;
21979;SDS011;11154;48.558;9.234;2023-05-14T01:30:03;4.03;;;3.63;;
21979;SDS011;11154;48.558;9.234;2023-05-14T01:32:09;4.97;;;4.28;;
21979;SDS011;11154;48.558;9.234;2023-05-14T01:34:13;5.28;;;4.32;;
21979;SDS011;11154;48.558;9.234;2023-05-14T01:36:16;5.97;;;4.38;;
21979;SDS011;11154;48.558;9.234;2023-05-14T01:38:20;5.70;;;4.22;;
21979;SDS011;11154;48.558;9.234;2023-05-14T01:40:23;5.65;;;4.40;;
21979;SDS011;11154;48.558;9.234;2023-05-14T01:42:25;4.88;;;3.92;;
21979;SDS011;11154;48.558;9.234;2023-05-14T01:44:28;4.78;;;4.20;;
21979;SDS011;11154;48.558;9.234;2023-05-14T01:46:30;5.68;;;4.10;;
21979;SDS011;11154;48.558;9.234;2023-05-14T01:48:32;5.38;;;4.28;;
21979;SDS011;11154;48.558;9.234;2023-05-14T01:50:34;5.13;;;4.60;;
21979;SDS011;11154;48.558;9.234;2023-05-14T01:52:36;4.82;;;4.32;;
21979;SDS011;11154;48.558;9.234;2023-05-14T01:54:39;4.85;;;4.38;;
21979;SDS011;11154;48.558;9.234;2023-05-14T01:56:41;7.53;;;4.90;;
21979;SDS011;11154;48.558;9.234;2023-05-14T01:58:43;5.03;;;4.20;;
21979;SDS011;11154;48.558;9.234;2023-05-14T02:00:44;5.60;;;4.40;;
21979;SDS011;11154;48.558;9.234;2023-05-14T02:02:46;4.53;;;4.13;;
21979;SDS011;11154;48.558;9.234;2023-05-14T02:04:48;5.57;;;4.38;;
21979;SDS011;11154;48.558;9.234;2023-05-14T02:06:54;6.22;;;4.80;;
21979;SDS011;11154;48.558;9.234;2023-05-14T02:08:55;6.03;;;4.25;;
21979;SDS011;11154;48.558;9.234;2023-05-14T02:10:58;6.32;;;4.38;;
21979;SDS011;11154;48.558;9.234;2023-05-14T02:13:00;7.60;;;4.10;;
21979;SDS011;11154;48.558;9.234;2023-05-14T02:15:03;5.00;;;4.50;;
21979;SDS011;11154;48.558;9.234;2023-05-14T02:17:05;4.72;;;4.20;;
21979;SDS011;11154;48.558;9.234;2023-05-14T02:19:07;7.00;;;4.43;;
21979;SDS011;11154;48.558;9.234;2023-05-14T02:21:08;7.03;;;4.05;;
21979;SDS011;11154;48.558;9.234;2023-05-14T02:23:10;4.90;;;4.03;;
21979;SDS011;11154;48.558;9.234;2023-05-14T02:25:11;4.68;;;3.95;;
21979;SDS011;11154;48.558;9.234;2023-05-14T02:27:14;5.28;;;4.38;;
21979;SDS011;11154;48.558;9.234;2023-05-14T02:29:16;4.50;;;4.10;;
21979;SDS011;11154;48.558;9.234;2023-05-14T02:31:18;4.47;;;4.07;;
21979;SDS011;11154;48.558;9.234;2023-05-14T02:33:20;5.93;;;4.80;;
21979;SDS011;11154;48.558;9.234;2023-05-14T02:35:21;5.60;;;4.47;;
21979;SDS011;11154;48.558;9.234;2023-05-14T02:37:23;5.63;;;4.95;;
21979;SDS011;11154;48.558;9.234;2023-05-14T02:39:25;4.70;;;4.22;;
21979;SDS011;11154;48.558;9.234;2023-05-14T02:41:27;7.28;;;5.20;;
21979;SDS011;11154;48.558;9.234;2023-05-14T02:43:30;5.53;;;5.03;;
21979;SDS011;11154;48.558;9.234;2023-05-14T02:45:31;6.00;;;4.80;;
21979;SDS011;11154;48.558;9.234;2023-05-14T02:47:33;8.05;;;5.10;;
21979;SDS011;11154;48.558;9.234;2023-05-14T02:49:35;6.28;;;5.10;;
21979;SDS011;11154;48.558;9.234;2023-05-14T02:51:36;5.90;;;4.82;;
21979;SDS011;11154;48.558;9.234;2023-05-14T02:53:39;7.00;;;5.35;;
21979;SDS011;11154;48.558;9.234;2023-05-14T02:55:40;6.28;;;4.88;;
21979;SDS011;11154;48.558;9.234;2023-05-14T02:57:42;7.38;;;5.07;;
21979;SDS011;11154;48.558;9.234;2023-05-14T02:59:45;5.40;;;4.85;;
21979;SDS011;11154;48.558;9.234;2023-05-14T03:01:46;7.10;;;4.95;;
21979;SDS011;11154;48.558;9.234;2023-05-14T03:03:48;6.28;;;5.10;;
21979;SDS011;11154;48.558;9.234;2023-05-14T03:05:50;6.65;;;4.47;;
21979;SDS011;11154;48.558;9.234;2023-05-14T03:07:52;5.90;;;4.97;;
21979;SDS011;11154;48.558;9.234;2023-05-14T03:09:53;6.30;;;4.60;;
21979;SDS011;11154;48.558;9.234;2023-05-14T03:11:55;4.90;;;4.38;;
21979;SDS011;11154;48.558;9.234;2023-05-14T03:13:57;5.90;;;4.45;;
21979;SDS011;11154;48.558;9.234;2023-05-14T03:16:00;4.90;;;4.40;;
21979;SDS011;11154;48.558;9.234;2023-05-14T03:18:02;9.35;;;4.68;;
21979;SDS011;11154;48.558;9.234;2023-05-14T03:20:04;4.80;;;4.30;;
21979;SDS011;11154;48.558;9.234;2023-05-14T03:22:06;5.38;;;4.88;;
21979;SDS011;11154;48.558;9.234;2023-05-14T03:24:08;5.40;;;4.30;;
21979;SDS011;11154;48.558;9.234;2023-05-14T03:26:09;5.75;;;4.45;;
21979;SDS011;11154;48.558;9.234;2023-05-14T03:28:11;6.57;;;5.10;;
21979;SDS011;11154;48.558;9.234;2023-05-14T03:30:13;6.57;;;5.10;;
21979;SDS011;11154;48.558;9.234;2023-05-14T03:32:16;7.95;;;5.00;;
21979;SDS011;11154;48.558;9.234;2023-05-14T03:34:18;7.25;;;5.07;;
21979;SDS011;11154;48.558;9.234;2023-05-14T03:36:20;6.72;;;5.57;;
21979;SDS011;11154;48.558;9.234;2023-05-14T03:38:21;6.97;;;4.75;;
21979;SDS011;11154;48.558;9.234;2023-05-14T03:40:23;7.25;;;5.15;;
21979;SDS011;11154;48.558;9.234;2023-05-14T03:42:25;8.05;;;5.75;;
21979;SDS011;11154;48.558;9.234;2023-05-14T03:44:26;5.82;;;5.25;;
21979;SDS011;11154;48.558;9.234;2023-05-14T03:46:28;5.43;;;4.93;;
21979;SDS011;11154;48.558;9.234;2023-05-14T03:48:31;5.63;;;5.03;;
21979;SDS011;11154;48.558;9.234;2023-05-14T03:50:33;5.65;;;5.10;;
21979;SDS011;11154;48.558;9.234;2023-05-14T03:52:34;6.13;;;5.53;;
21979;SDS011;11154;48.558;9.234;2023-05-14T03:54:36;6.07;;;4.90;;
21979;SDS011;11154;48.558;9.234;2023-05-14T03:56:40;5.68;;;5.18;;
21979;SDS011;11154;48.558;9.234;2023-05-14T03:58:41;5.78;;;5.18;;
21979;SDS011;11154;48.558;9.234;2023-05-14T04:00:43;5.43;;;4.93;;
21979;SDS011;11154;48.558;9.234;2023-05-14T04:02:45;6.28;;;5.03;;
21979;SDS011;11154;48.558;9.234;2023-05-14T04:04:48;7.38;;;5.22;;
21979;SDS011;11154;48.558;9.234;2023-05-14T04:06:50;6.65;;;5.28;;
21979;SDS011;11154;48.558;9.234;2023-05-14T04:08:51;8.88;;;6.05;;
21979;SDS011;11154;48.558;9.234;2023-05-14T04:10:53;8.57;;;5.72;;
21979;SDS011;11154;48.558;9.234;2023-05-14T04:12:55;7.32;;;6.10;;
21979;SDS011;11154;48.558;9.234;2023-05-14T04:14:56;6.20;;;5.60;;
21979;SDS011;11154;48.558;9.234;2023-05-14T04:16:59;9.02;;;5.72;;
21979;SDS011;11154;48.558;9.234;2023-05-14T04:19:02;8.57;;;6.20;;
21979;SDS011;11154;48.558;9.234;2023-05-14T04:21:06;6.47;;;5.88;;
21979;SDS011;11154;48.558;9.234;2023-05-14T04:23:07;8.55;;;6.78;;
21979;SDS011;11154;48.558;9.234;2023-05-14T04:25:09;7.63;;;6.85;;
21979;SDS011;11154;48.558;9.234;2023-05-14T04:27:13;8.05;;;6.72;;
21979;SDS011;11154;48.558;9.234;2023-05-14T04:29:20;7.80;;;6.55;;
21979;SDS011;11154;48.558;9.234;2023-05-14T04:31:21;7.60;;;6.45;;
21979;SDS011;11154;48.558;9.234;2023-05-14T04:33:23;8.05;;;6.85;;
21979;SDS011;11154;48.558;9.234;2023-05-14T04:35:24;8.02;;;7.22;;
21979;SDS011;11154;48.558;9.234;2023-05-14T04:37:28;8.63;;;6.63;;
21979;SDS011;11154;48.558;9.234;2023-05-14T04:39:29;7.85;;;7.05;;
21979;SDS011;11154;48.558;9.234;2023-05-14T04:41:31;7.97;;;6.78;;
21979;SDS011;11154;48.558;9.234;2023-05-14T04:43:33;7.20;;;6.50;;
21979;SDS011;11154;48.558;9.234;2023-05-14T04:45:34;10.25;;;7.25;;
21979;SDS011;11154;48.558;9.234;2023-05-14T04:47:36;8.18;;;7.25;;
21979;SDS011;11154;48.558;9.234;2023-05-14T04:49:38;10.85;;;7.93;;
21979;SDS011;11154;48.558;9.234;2023-05-14T04:51:39;7.85;;;6.82;;
21979;SDS011;11154;48.558;9.234;2023-05-14T04:53:42;9.30;;;7.10;;
21979;SDS011;11154;48.558;9.234;2023-05-14T04:55:44;9.63;;;7.93;;
21979;SDS011;11154;48.558;9.234;2023-05-14T04:57:46;8.63;;;7.68;;
21979;SDS011;11154;48.558;9.234;2023-05-14T04:59:48;9.15;;;6.68;;
21979;SDS011;11154;48.558;9.234;2023-05-14T05:01:49;8.35;;;7.03;;
21979;SDS011;11154;48.558;9.234;2023-05-14T05:03:54;8.55;;;6.68;;
21979;SDS011;11154;48.558;9.234;2023-05-14T05:05:56;6.93;;;6.28;;
21979;SDS011;11154;48.558;9.234;2023-05-14T05:07:58;7.10;;;6.40;;
21979;SDS011;11154;48.558;9.234;2023-05-14T05:10:01;6.88;;;6.20;;
21979;SDS011;11154;48.558;9.234;2023-05-14T05:12:03;7.85;;;6.75;;
21979;SDS011;11154;48.558;9.234;2023-05-14T05:14:06;7.78;;;6.82;;
21979;SDS011;11154;48.558;9.234;2023-05-14T05:16:07;9.32;;;6.30;;
21979;SDS011;11154;48.558;9.234;2023-05-14T05:18:09;6.30;;;5.70;;
21979;SDS011;11154;48.558;9.234;2023-05-14T05:20:11;9.88;;;6.05;;
21979;SDS011;11154;48.558;9.234;2023-05-14T05:22:13;7.70;;;6.45;;
21979;SDS011;11154;48.558;9.234;2023-05-14T05:24:15;6.70;;;6.00;;
21979;SDS011;11154;48.558;9.234;2023-05-14T05:26:18;6.80;;;5.95;;
21979;SDS011;11154;48.558;9.234;2023-05-14T05:28:21;7.50;;;6.18;;
21979;SDS011;11154;48.558;9.234;2023-05-14T05:30:22;9.25;;;7.05;;
21979;SDS011;11154;48.558;9.234;2023-05-14T05:32:24;7.50;;;6.30;;
21979;SDS011;11154;48.558;9.234;2023-05-14T05:34:26;8.10;;;6.50;;
21979;SDS011;11154;48.558;9.234;2023-05-14T05:36:27;9.35;;;7.88;;
21979;SDS011;11154;48.558;9.234;2023-05-14T05:38:30;8.27;;;7.00;;
21979;SDS011;11154;48.558;9.234;2023-05-14T05:40:31;8.10;;;6.53;;
21979;SDS011;11154;48.558;9.234;2023-05-14T05:42:34;7.47;;;6.78;;
21979;SDS011;11154;48.558;9.234;2023-05-14T05:44:36;8.52;;;6.55;;
21979;SDS011;11154;48.558;9.234;2023-05-14T05:46:38;7.28;;;6.57;;
21979;SDS011;11154;48.558;9.234;2023-05-14T05:48:40;7.22;;;6.43;;
21979;SDS011;11154;48.558;9.234;2023-05-14T05:50:41;7.35;;;6.55;;
21979;SDS011;11154;48.558;9.234;2023-05-14T05:52:43;8.50;;;6.15;;
21979;SDS011;11154;48.558;9.234;2023-05-14T05:54:45;7.22;;;6.15;;
21979;SDS011;11154;48.558;9.234;2023-05-14T05:56:47;8.77;;;7.05;;
21979;SDS011;11154;48.558;9.234;2023-05-14T05:58:50;7.78;;;6.97;;
21979;SDS011;11154;48.558;9.234;2023-05-14T06:00:52;8.02;;;7.20;;
21979;SDS011;11154;48.558;9.234;2023-05-14T06:02:54;7.50;;;6.72;;
21979;SDS011;11154;48.558;9.234;2023-05-14T06:04:56;8.00;;;6.55;;
21979;SDS011;11154;48.558;9.234;2023-05-14T06:06:58;8.43;;;6.82;;
21979;SDS011;11154;48.558;9.234;2023-05-14T06:08:59;9.18;;;7.35;;
21979;SDS011;11154;48.558;9.234;2023-05-14T06:11:01;7.80;;;7.00;;
21979;SDS011;11154;48.558;9.234;2023-05-14T06:13:04;7.07;;;6.28;;
21979;SDS011;11154;48.558;9.234;2023-05-14T06:15:08;7.47;;;6.40;;
21979;SDS011;11154;48.558;9.234;2023-05-14T06:17:11;7.43;;;6.72;;
21979;SDS011;11154;48.558;9.234;2023-05-14T06:19:12;9.30;;;7.25;;
21979;SDS011;11154;48.558;9.234;2023-05-14T06:21:14;7.35;;;6.40;;
21979;SDS011;11154;48.558;9.234;2023-05-14T06:23:16;7.80;;;6.65;;
21979;SDS011;11154;48.558;9.234;2023-05-14T06:25:17;7.53;;;6.63;;
21979;SDS011;11154;48.558;9.234;2023-05-14T06:27:19;10.18;;;7.10;;
21979;SDS011;11154;48.558;9.234;2023-05-14T06:29:21;8.70;;;7.15;;
21979;SDS011;11154;48.558;9.234;2023-05-14T06:31:24;10.30;;;7.38;;
21979;SDS011;11154;48.558;9.234;2023-05-14T06:33:26;8.57;;;7.20;;
21979;SDS011;11154;48.558;9.234;2023-05-14T06:35:30;11.02;;;7.43;;
21979;SDS011;11154;48.558;9.234;2023-05-14T06:37:33;8.30;;;7.25;;
21979;SDS011;11154;48.558;9.234;2023-05-14T06:39:35;7.63;;;6.88;;
21979;SDS011;11154;48.558;9.234;2023-05-14T06:41:37;7.90;;;7.10;;
21979;SDS011;11154;48.558;9.234;2023-05-14T06:43:39;7.53;;;6.70;;
21979;SDS011;11154;48.558;9.234;2023-05-14T06:45:40;8.05;;;7.10;;
21979;SDS011;11154;48.558;9.234;2023-05-14T06:47:43;9.43;;;6.97;;
21979;SDS011;11154;48.558;9.234;2023-05-14T06:49:45;8.02;;;7.22;;
21979;SDS011;11154;48.558;9.234;2023-05-14T06:51:47;7.35;;;6.60;;
21979;SDS011;11154;48.558;9.234;2023-05-14T06:53:49;8.05;;;7.22;;
21979;SDS011;11154;48.558;9.234;2023-05-14T06:55:51;8.20;;;7.00;;
21979;SDS011;11154;48.558;9.234;2023-05-14T06:57:53;7.97;;;7.03;;
21979;SDS011;11154;48.558;9.234;2023-05-14T06:59:54;8.60;;;7.47;;
21979;SDS011;11154;48.558;9.234;2023-05-14T07:01:56;7.70;;;6.90;;
21979;SDS011;11154;48.558;9.234;2023-05-14T07:04:00;9.90;;;7.40;;
21979;SDS011;11154;48.558;9.234;2023-05-14T07:06:01;8.07;;;6.90;;
21979;SDS011;11154;48.558;9.234;2023-05-14T07:08:03;8.30;;;6.88;;
21979;SDS011;11154;48.558;9.234;2023-05-14T07:10:06;7.47;;;6.78;;
21979;SDS011;11154;48.558;9.234;2023-05-14T07:12:08;7.38;;;6.68;;
21979;SDS011;11154;48.558;9.234;2023-05-14T07:14:10;6.63;;;5.93;;
21979;SDS011;11154;48.558;9.234;2023-05-14T07:16:11;8.20;;;6.63;;
21979;SDS011;11154;48.558;9.234;2023-05-14T07:18:13;7.68;;;6.88;;
21979;SDS011;11154;48.558;9.234;2023-05-14T07:20:16;8.50;;;7.18;;
21979;SDS011;11154;48.558;9.234;2023-05-14T07:22:18;7.97;;;7.18;;
21979;SDS011;11154;48.558;9.234;2023-05-14T07:24:20;8.65;;;7.00;;
21979;SDS011;11154;48.558;9.234;2023-05-14T07:26:22;7.85;;;7.05;;
21979;SDS011;11154;48.558;9.234;2023-05-14T07:28:24;7.70;;;6.80;;
21979;SDS011;11154;48.558;9.234;2023-05-14T07:30:26;8.25;;;7.43;;
21979;SDS011;11154;48.558;9.234;2023-05-14T07:32:27;10.10;;;7.75;;
21979;SDS011;11154;48.558;9.234;2023-05-14T07:34:29;12.88;;;9.80;;
21979;SDS011;11154;48.558;9.234;2023-05-14T07:36:33;7.72;;;6.93;;
21979;SDS011;11154;48.558;9.234;2023-05-14T07:38:34;8.80;;;7.00;;
21979;SDS011;11154;48.558;9.234;2023-05-14T07:40:36;9.40;;;7.50;;
21979;SDS011;11154;48.558;9.234;2023-05-14T07:42:38;8.88;;;7.07;;
21979;SDS011;11154;48.558;9.234;2023-05-14T07:44:40;10.40;;;7.60;;
21979;SDS011;11154;48.558;9.234;2023-05-14T07:46:41;9.00;;;7.38;;
21979;SDS011;11154;48.558;9.234;2023-05-14T07:48:43;8.95;;;8.05;;
21979;SDS011;11154;48.558;9.234;2023-05-14T07:50:45;8.13;;;7.30;;
21979;SDS011;11154;48.558;9.234;2023-05-14T07:52:48;11.10;;;8.48;;
21979;SDS011;11154;48.558;9.234;2023-05-14T07:54:50;8.55;;;7.65;;
21979;SDS011;11154;48.558;9.234;2023-05-14T07:56:52;10.30;;;8.13;;
21979;SDS011;11154;48.558;9.234;2023-05-14T07:58:53;9.02;;;8.13;;
21979;SDS011;11154;48.558;9.234;2023-05-14T08:00:55;9.32;;;7.95;;
21979;SDS011;11154;48.558;9.234;2023-05-14T08:02:57;9.85;;;7.63;;
21979;SDS011;11154;48.558;9.234;2023-05-14T08:04:58;10.68;;;8.30;;
21979;SDS011;11154;48.558;9.234;2023-05-14T08:07:00;9.85;;;8.80;;
21979;SDS011;11154;48.558;9.234;2023-05-14T08:09:03;8.55;;;7.70;;
21979;SDS011;11154;48.558;9.234;2023-05-14T08:11:05;11.35;;;8.45;;
21979;SDS011;11154;48.558;9.234;2023-05-14T08:13:07;9.65;;;8.40;;
21979;SDS011;11154;48.558;9.234;2023-05-14T08:15:09;10.88;;;8.32;;
21979;SDS011;11154;48.558;9.234;2023-05-14T08:17:11;10.65;;;8.90;;
21979;SDS011;11154;48.558;9.234;2023-05-14T08:19:13;9.45;;;8.48;;
21979;SDS011;11154;48.558;9.234;2023-05-14T08:21:15;10.27;;;8.85;;
21979;SDS011;11154;48.558;9.234;2023-05-14T08:23:17;10.52;;;8.95;;
21979;SDS011;11154;48.558;9.234;2023-05-14T08:25:20;10.88;;;9.20;;
21979;SDS011;11154;48.558;9.234;2023-05-14T08:27:21;12.07;;;8.93;;
21979;SDS011;11154;48.558;9.234;2023-05-14T08:29:25;10.35;;;8.68;;
21979;SDS011;11154;48.558;9.234;2023-05-14T08:31:30;10.20;;;8.95;;
21979;SDS011;11154;48.558;9.234;2023-05-14T08:33:31;10.70;;;8.43;;
21979;SDS011;11154;48.558;9.234;2023-05-14T08:35:33;10.32;;;9.15;;
21979;SDS011;11154;48.558;9.234;2023-05-14T08:37:35;10.18;;;8.52;;
21979;SDS011;11154;48.558;9.234;2023-05-14T08:39:39;9.00;;;8.10;;
21979;SDS011;11154;48.558;9.234;2023-05-14T08:41:42;9.57;;;8.00;;
21979;SDS011;11154;48.558;9.234;2023-05-14T08:43:48;10.40;;;9.00;;
21979;SDS011;11154;48.558;9.234;2023-05-14T08:46:03;9.85;;;8.50;;
21979;SDS011;11154;48.558;9.234;2023-05-14T08:48:06;10.77;;;8.63;;
21979;SDS011;11154;48.558;9.234;2023-05-14T08:50:14;8.82;;;7.85;;
21979;SDS011;11154;48.558;9.234;2023-05-14T08:52:17;9.52;;;8.57;;
21979;SDS011;11154;48.558;9.234;2023-05-14T08:54:24;13.70;;;9.60;;
21979;SDS011;11154;48.558;9.234;2023-05-14T08:56:28;11.35;;;9.30;;
21979;SDS011;11154;48.558;9.234;2023-05-14T08:58:33;11.45;;;9.15;;
21979;SDS011;11154;48.558;9.234;2023-05-14T09:00:35;9.57;;;8.57;;
21979;SDS011;11154;48.558;9.234;2023-05-14T09:02:38;11.10;;;9.30;;
21979;SDS011;11154;48.558;9.234;2023-05-14T09:04:40;9.73;;;8.65;;
21979;SDS011;11154;48.558;9.234;2023-05-14T09:06:43;10.60;;;9.50;;
21979;SDS011;11154;48.558;9.234;2023-05-14T09:08:48;11.07;;;9.45;;
21979;SDS011;11154;48.558;9.234;2023-05-14T09:10:50;10.43;;;9.32;;
21979;SDS011;11154;48.558;9.234;2023-05-14T09:12:52;10.15;;;9.15;;
21979;SDS011;11154;48.558;9.234;2023-05-14T09:14:55;12.38;;;9.52;;
21979;SDS011;11154;48.558;9.234;2023-05-14T09:16:57;10.18;;;9.05;;
21979;SDS011;11154;48.558;9.234;2023-05-14T09:18:58;11.60;;;9.18;;
21979;SDS011;11154;48.558;9.234;2023-05-14T09:21:00;12.73;;;9.13;;
21979;SDS011;11154;48.558;9.234;2023-05-14T09:23:02;11.10;;;9.90;;
21979;SDS011;11154;48.558;9.234;2023-05-14T09:25:04;10.77;;;9.57;;
21979;SDS011;11154;48.558;9.234;2023-05-14T09:27:08;12.07;;;9.93;;
21979;SDS011;11154;48.558;9.234;2023-05-14T09:29:15;11.25;;;8.93;;
21979;SDS011;11154;48.558;9.234;2023-05-14T09:31:18;12.57;;;9.88;;
21979;SDS011;11154;48.558;9.234;2023-05-14T09:33:26;12.38;;;9.35;;
21979;SDS011;11154;48.558;9.234;2023-05-14T09:35:28;9.63;;;8.65;;
21979;SDS011;11154;48.558;9.234;2023-05-14T09:37:31;8.60;;;7.72;;
21979;SDS011;11154;48.558;9.234;2023-05-14T09:39:36;9.65;;;8.65;;
21979;SDS011;11154;48.558;9.234;2023-05-14T09:41:39;11.27;;;9.25;;
21979;SDS011;11154;48.558;9.234;2023-05-14T09:43:40;11.10;;;9.18;;
21979;SDS011;11154;48.558;9.234;2023-05-14T09:45:42;10.07;;;8.27;;
21979;SDS011;11154;48.558;9.234;2023-05-14T09:47:45;9.63;;;8.07;;
21979;SDS011;11154;48.558;9.234;2023-05-14T09:49:47;10.15;;;8.20;;
21979;SDS011;11154;48.558;9.234;2023-05-14T09:51:49;9.23;;;7.38;;
21979;SDS011;11154;48.558;9.234;2023-05-14T09:53:51;9.07;;;7.82;;
21979;SDS011;11154;48.558;9.234;2023-05-14T09:55:55;10.63;;;7.65;;
21979;SDS011;11154;48.558;9.234;2023-05-14T09:57:58;9.45;;;7.70;;
21979;SDS011;11154;48.558;9.234;2023-05-14T09:59:59;9.45;;;7.43;;
21979;SDS011;11154;48.558;9.234;2023-05-14T10:02:01;7.88;;;7.07;;
21979;SDS011;11154;48.558;9.234;2023-05-14T10:04:07;7.47;;;6.68;;
21979;SDS011;11154;48.558;9.234;2023-05-14T10:06:11;8.95;;;6.78;;
21979;SDS011;11154;48.558;9.234;2023-05-14T10:08:18;8.57;;;6.88;;
21979;SDS011;11154;48.558;9.234;2023-05-14T10:10:23;7.53;;;6.72;;
21979;SDS011;11154;48.558;9.234;2023-05-14T10:12:31;8.40;;;7.22;;
21979;SDS011;11154;48.558;9.234;2023-05-14T10:14:35;8.15;;;7.28;;
21979;SDS011;11154;48.558;9.234;2023-05-14T10:16:41;8.43;;;7.45;;
21979;SDS011;11154;48.558;9.234;2023-05-14T10:18:49;7.78;;;6.90;;
21979;SDS011;11154;48.558;9.234;2023-05-14T10:20:59;10.15;;;6.68;;
21979;SDS011;11154;48.558;9.234;2023-05-14T10:25:07;8.20;;;6.60;;
21979;SDS011;11154;48.558;9.234;2023-05-14T10:27:11;7.15;;;6.40;;
21979;SDS011;11154;48.558;9.234;2023-05-14T10:29:14;7.65;;;6.43;;
21979;SDS011;11154;48.558;9.234;2023-05-14T10:31:15;7.35;;;6.05;;
21979;SDS011;11154;48.558;9.234;2023-05-14T10:33:17;10.30;;;5.90;;
21979;SDS011;11154;48.558;9.234;2023-05-14T10:35:19;7.03;;;5.40;;
21979;SDS011;11154;48.558;9.234;2023-05-14T10:37:26;7.93;;;6.47;;
21979;SDS011;11154;48.558;9.234;2023-05-14T10:39:40;9.10;;;5.82;;
21979;SDS011;11154;48.558;9.234;2023-05-14T10:41:46;6.80;;;5.72;;
21979;SDS011;11154;48.558;9.234;2023-05-14T10:43:48;7.53;;;5.95;;
21979;SDS011;11154;48.558;9.234;2023-05-14T10:45:50;5.53;;;4.85;;
21979;SDS011;11154;48.558;9.234;2023-05-14T10:47:52;6.18;;;4.72;;
21979;SDS011;11154;48.558;9.234;2023-05-14T10:49:55;7.93;;;5.55;;
21979;SDS011;11154;48.558;9.234;2023-05-14T10:51:58;8.43;;;5.10;;
21979;SDS011;11154;48.558;9.234;2023-05-14T10:54:03;6.30;;;4.65;;
21979;SDS011;11154;48.558;9.234;2023-05-14T10:56:12;5.82;;;5.07;;
21979;SDS011;11154;48.558;9.234;2023-05-14T10:58:14;6.22;;;5.32;;
21979;SDS011;11154;48.558;9.234;2023-05-14T11:00:16;5.72;;;5.03;;
21979;SDS011;11154;48.558;9.234;2023-05-14T11:02:22;6.03;;;5.35;;
21979;SDS011;11154;48.558;9.234;2023-05-14T11:04:26;5.15;;;4.63;;
21979;SDS011;11154;48.558;9.234;2023-05-14T11:06:28;6.25;;;5.18;;
21979;SDS011;11154;48.558;9.234;2023-05-14T11:08:30;5.57;;;4.65;;
21979;SDS011;11154;48.558;9.234;2023-05-14T11:10:35;6.03;;;4.80;;
21979;SDS011;11154;48.558;9.234;2023-05-14T11:12:38;8.50;;;5.03;;
21979;SDS011;11154;48.558;9.234;2023-05-14T11:14:41;5.95;;;4.68;;
21979;SDS011;11154;48.558;9.234;2023-05-14T11:16:43;5.00;;;4.30;;
21979;SDS011;11154;48.558;9.234;2023-05-14T11:18:45;6.43;;;5.50;;
21979;SDS011;11154;48.558;9.234;2023-05-14T11:20:47;5.28;;;4.50;;
21979;SDS011;11154;48.558;9.234;2023-05-14T11:22:50;6.22;;;4.75;;
21979;SDS011;11154;48.558;9.234;2023-05-14T11:24:51;6.22;;;4.80;;
21979;SDS011;11154;48.558;9.234;2023-05-14T11:26:55;6.40;;;4.68;;
21979;SDS011;11154;48.558;9.234;2023-05-14T11:28:56;5.82;;;4.95;;
21979;SDS011;11154;48.558;9.234;2023-05-14T11:30:58;6.43;;;5.03;;
21979;SDS011;11154;48.558;9.234;2023-05-14T11:33:00;8.05;;;5.32;;
21979;SDS011;11154;48.558;9.234;2023-05-14T11:35:02;7.07;;;4.40;;
21979;SDS011;11154;48.558;9.234;2023-05-14T11:37:05;5.13;;;4.07;;
21979;SDS011;11154;48.558;9.234;2023-05-14T11:39:16;5.60;;;4.30;;
21979;SDS011;11154;48.558;9.234;2023-05-14T11:41:18;4.03;;;3.45;;
21979;SDS011;11154;48.558;9.234;2023-05-14T11:43:23;5.30;;;4.28;;
21979;SDS011;11154;48.558;9.234;2023-05-14T11:45:28;5.50;;;3.72;;
21979;SDS011;11154;48.558;9.234;2023-05-14T11:47:32;5.30;;;3.90;;
21979;SDS011;11154;48.558;9.234;2023-05-14T11:49:33;4.78;;;3.65;;
21979;SDS011;11154;48.558;9.234;2023-05-14T11:51:36;4.57;;;4.07;;
21979;SDS011;11154;48.558;9.234;2023-05-14T11:53:38;5.70;;;3.97;;
21979;SDS011;11154;48.558;9.234;2023-05-14T11:55:40;5.00;;;4.50;;
21979;SDS011;11154;48.558;9.234;2023-05-14T11:57:41;4.78;;;4.10;;
21979;SDS011;11154;48.558;9.234;2023-05-14T11:59:45;4.53;;;3.67;;
21979;SDS011;11154;48.558;9.234;2023-05-14T12:01:48;4.35;;;3.63;;
21979;SDS011;11154;48.558;9.234;2023-05-14T12:03:51;4.38;;;3.97;;
21979;SDS011;11154;48.558;9.234;2023-05-14T12:05:56;5.05;;;3.97;;
21979;SDS011;11154;48.558;9.234;2023-05-14T12:07:58;5.07;;;4.40;;
21979;SDS011;11154;48.558;9.234;2023-05-14T12:10:03;5.13;;;4.55;;
21979;SDS011;11154;48.558;9.234;2023-05-14T12:12:09;6.10;;;4.22;;
21979;SDS011;11154;48.558;9.234;2023-05-14T12:14:14;5.22;;;4.10;;
21979;SDS011;11154;48.558;9.234;2023-05-14T12:16:19;4.85;;;4.28;;
21979;SDS011;11154;48.558;9.234;2023-05-14T12:18:21;5.07;;;4.57;;
21979;SDS011;11154;48.558;9.234;2023-05-14T12:20:22;4.78;;;4.20;;